Main page
METAR-TAF:

METAR-TAF

Airports :

Rosecrans Memorial Airport

Saint Joseph, Missouri, United States

latitude: 39-46-05N, longitude: 094-54-33W, elevation: 823 ft

Current weather observation

The report was made 42 minutes ago, at 09:53 UTC
Calm wind
Temperature 45°F
Humidity 76%
Pressure 30.07 in. Hg
Visibility: 10 miles
Clear sky

METAR: KSTJ 130953Z AUTO 00000KT 10SM CLR 07/03 A3007 RMK AO2 SLP181 T00720028

Time: 05:35 (10:35 UTC)

Forecast

The report was made 5 hours and 15 minutes ago, at 05:20 UTC
Forecast valid from 13 at 06 UTC to 14 at 06 UTC
Wind 3 mph from variable directions
Visibility: 6 miles
Clear sky
From 13 at 1300 UTC
Wind 12 mph from the South
Visibility: 6 miles
Few clouds at a height of 25000 ft
From 13 at 1800 UTC
Wind 16 mph from the South with gusts up to 28 mph
Visibility: 6 miles
Scattered clouds at a height of 15000 ft

TAF: KSTJ 130520Z 1306/1406 VRB03KT P6SM SKC FM131300 18010KT P6SM FEW250 FM131800 19014G24KT P6SM SCT150

Weather observations and forecasts of more than 4000 airports (METAR and TAF reports).

The available stations are represented by yellow and red dots on the map.

Hover mouse over dot to see the name of the station.

Then click to see weather observations and forecasts.

To change the map : click on the green buttons with a black cross to zoom in, on the green button with a dash to zoom out, or on the green arrows for adjacent maps.


METAR-TAF: